createdAt,value
2018-02-27T00:00:27.285Z,40.70
2018-02-27T00:02:54.857Z,40.60
2018-02-27T00:05:22.444Z,40.60
2018-02-27T00:07:50.012Z,40.50
2018-02-27T00:10:17.608Z,40.10
2018-02-27T00:12:45.177Z,40.40
2018-02-27T00:15:12.772Z,40.60
2018-02-27T00:17:40.339Z,40.60
2018-02-27T00:20:07.938Z,41.30
2018-02-27T00:22:35.525Z,41.30
2018-02-27T00:25:03.114Z,41.20
2018-02-27T00:27:30.683Z,41.70
2018-02-27T00:29:59.278Z,41.60
2018-02-27T00:32:26.840Z,41.10
2018-02-27T00:34:54.427Z,41.00
2018-02-27T00:37:22.002Z,41.60
2018-02-27T00:39:49.576Z,41.10
2018-02-27T00:42:17.169Z,41.40
2018-02-27T00:44:44.748Z,41.50
2018-02-27T00:47:12.350Z,41.40
2018-02-27T00:49:40.691Z,41.20
2018-02-27T00:52:08.293Z,41.20
2018-02-27T00:54:36.636Z,41.10
2018-02-27T00:57:04.230Z,41.10
2018-02-27T00:59:31.801Z,41.40
2018-02-27T01:01:59.385Z,41.20
2018-02-27T01:04:26.954Z,40.50
2018-02-27T01:06:59.373Z,41.90
2018-02-27T01:09:27.714Z,41.10
2018-02-27T01:11:55.304Z,41.10
2018-02-27T01:14:23.642Z,40.50
2018-02-27T01:16:51.228Z,40.40
2018-02-27T01:19:18.798Z,40.60
2018-02-27T01:21:47.148Z,40.60
2018-02-27T01:24:14.716Z,41.20
2018-02-27T01:26:42.309Z,40.50
2018-02-27T01:29:09.877Z,40.80
2018-02-27T01:31:37.476Z,41.60
2018-02-27T01:34:05.041Z,41.30
2018-02-27T01:36:32.643Z,42.10
2018-02-27T01:39:00.216Z,41.90
2018-02-27T01:41:27.816Z,42.10
2018-02-27T01:43:55.388Z,41.70
2018-02-27T01:46:22.965Z,41.40
2018-02-27T01:48:51.321Z,42.40
2018-02-27T01:51:18.891Z,42.40
2018-02-27T01:53:46.484Z,42.30
2018-02-27T01:56:14.246Z,42.40
2018-02-27T01:58:41.833Z,42.90
2018-02-27T02:01:09.401Z,42.20
2018-02-27T02:03:37.019Z,41.80
2018-02-27T02:06:04.592Z,42.00
2018-02-27T02:08:32.188Z,41.80
2018-02-27T02:10:59.762Z,41.90
2018-02-27T02:13:27.357Z,41.90
2018-02-27T02:15:54.945Z,42.20
2018-02-27T02:18:22.543Z,42.00
2018-02-27T02:20:50.121Z,41.30
2018-02-27T02:23:18.482Z,42.00
2018-02-27T02:25:46.048Z,42.00
2018-02-27T02:28:13.638Z,42.30
2018-02-27T02:30:41.206Z,41.70
2018-02-27T02:33:08.805Z,41.60
2018-02-27T02:35:36.388Z,42.20
2018-02-27T02:38:04.829Z,42.50
2018-02-27T02:40:32.416Z,42.40
2018-02-27T02:43:00.010Z,42.70
2018-02-27T02:45:27.578Z,41.90
2018-02-27T02:47:55.185Z,41.70
2018-02-27T02:50:22.753Z,42.50
2018-02-27T02:52:50.325Z,42.10
2018-02-27T02:55:17.921Z,41.90
2018-02-27T02:57:46.257Z,42.50
2018-02-27T03:00:15.013Z,43.40
2018-02-27T03:02:42.581Z,42.80
2018-02-27T03:05:11.684Z,42.70
2018-02-27T03:07:39.250Z,42.70
2018-02-27T03:10:06.846Z,42.60
2018-02-27T03:12:34.415Z,42.20
2018-02-27T03:15:02.015Z,42.30
2018-02-27T03:17:29.576Z,42.30
2018-02-27T03:19:57.173Z,42.10
2018-02-27T03:22:24.741Z,41.50
2018-02-27T03:24:52.332Z,41.10
2018-02-27T03:27:19.904Z,41.70
2018-02-27T03:29:47.500Z,41.50
2018-02-27T03:32:15.833Z,42.60
2018-02-27T03:34:43.424Z,42.60
2018-02-27T03:37:10.988Z,43.00
2018-02-27T03:39:38.569Z,43.70
2018-02-27T03:42:06.142Z,42.40
2018-02-27T03:44:33.725Z,43.20
2018-02-27T03:47:01.290Z,43.70
2018-02-27T03:49:28.881Z,43.50
2018-02-27T03:51:56.452Z,42.70
2018-02-27T03:54:24.797Z,42.30
2018-02-27T03:56:52.376Z,42.20
2018-02-27T03:59:19.954Z,42.60
2018-02-27T04:01:47.542Z,42.80
2018-02-27T04:04:15.109Z,42.20
2018-02-27T04:06:42.698Z,43.40
2018-02-27T04:09:10.262Z,42.80
2018-02-27T04:11:37.848Z,43.70
2018-02-27T04:14:05.664Z,43.40
2018-02-27T04:16:33.262Z,43.20
2018-02-27T04:19:00.829Z,42.60
2018-02-27T04:21:28.416Z,43.00
2018-02-27T04:23:55.981Z,42.60
2018-02-27T04:26:23.568Z,42.30
2018-02-27T04:28:51.139Z,42.30
2018-02-27T04:31:18.748Z,43.10
2018-02-27T04:33:46.320Z,42.70
2018-02-27T04:36:13.908Z,42.60
2018-02-27T04:38:41.481Z,42.50
2018-02-27T04:41:09.090Z,43.40
2018-02-27T04:43:36.666Z,43.00
2018-02-27T04:46:04.264Z,42.30
2018-02-27T04:48:31.856Z,43.20
2018-02-27T04:50:59.446Z,42.80
2018-02-27T04:53:27.012Z,42.70
2018-02-27T04:55:54.614Z,43.00
2018-02-27T04:58:22.953Z,42.50
2018-02-27T05:00:50.549Z,42.50
2018-02-27T05:03:18.120Z,42.10
2018-02-27T05:05:45.706Z,42.60
2018-02-27T05:08:13.275Z,42.30
2018-02-27T05:10:40.870Z,42.70
2018-02-27T05:13:09.208Z,43.30
2018-02-27T05:15:36.792Z,43.20
2018-02-27T05:18:05.148Z,42.60
2018-02-27T05:20:32.793Z,42.80
2018-02-27T05:23:01.272Z,42.30
2018-02-27T05:25:29.438Z,42.40
2018-02-27T05:27:58.061Z,42.60
2018-02-27T05:30:25.682Z,42.30
2018-02-27T05:32:53.269Z,42.60
2018-02-27T05:35:20.828Z,42.60
2018-02-27T05:37:48.421Z,42.50
2018-02-27T05:40:16.762Z,42.70
2018-02-27T05:42:44.352Z,42.50
2018-02-27T05:45:11.928Z,42.00
2018-02-27T05:47:39.534Z,41.70
2018-02-27T05:50:07.111Z,42.60
2018-02-27T05:52:34.702Z,42.50
2018-02-27T05:55:03.030Z,42.80
2018-02-27T05:57:30.618Z,42.70
2018-02-27T05:59:58.193Z,42.50
2018-02-27T06:02:25.818Z,42.50
2018-02-27T06:04:53.384Z,42.60
2018-02-27T06:07:21.009Z,42.50
2018-02-27T06:09:48.577Z,42.80
2018-02-27T06:12:16.176Z,42.70
2018-02-27T06:14:43.745Z,42.60
2018-02-27T06:17:12.105Z,43.80
2018-02-27T06:19:39.688Z,43.80
2018-02-27T06:22:07.282Z,43.40
2018-02-27T06:24:34.853Z,43.90
2018-02-27T06:27:02.467Z,44.30
2018-02-27T06:29:31.616Z,44.60
2018-02-27T06:31:59.204Z,44.60
2018-02-27T06:34:26.771Z,45.10
2018-02-27T06:36:54.374Z,45.00
2018-02-27T06:39:21.946Z,44.60
2018-02-27T06:41:49.543Z,44.60
2018-02-27T06:44:17.109Z,45.00
2018-02-27T06:46:45.468Z,45.20
2018-02-27T06:49:13.033Z,45.10
2018-02-27T06:51:40.606Z,45.00
2018-02-27T06:54:08.211Z,46.00
2018-02-27T06:56:35.773Z,45.80
2018-02-27T06:59:03.368Z,45.40
2018-02-27T07:01:30.936Z,45.90
2018-02-27T07:03:58.529Z,45.50
2018-02-27T07:06:26.093Z,45.90
2018-02-27T07:08:53.693Z,45.10
2018-02-27T07:11:21.278Z,44.60
2018-02-27T07:13:49.646Z,44.40
2018-02-27T07:16:17.213Z,44.30
2018-02-27T07:18:44.803Z,44.60
2018-02-27T07:21:12.555Z,44.10
2018-02-27T07:23:40.145Z,43.40
2018-02-27T07:26:07.727Z,44.00
2018-02-27T07:28:36.096Z,43.80
2018-02-27T07:31:03.657Z,43.80
2018-02-27T07:33:31.261Z,43.50
2018-02-27T07:35:58.838Z,43.60
2018-02-27T07:38:26.462Z,44.00
2018-02-27T07:40:54.034Z,44.50
2018-02-27T07:43:21.637Z,44.30
2018-02-27T07:45:49.208Z,43.70
2018-02-27T07:48:16.798Z,44.00
2018-02-27T07:50:44.377Z,44.00
2018-02-27T07:53:11.968Z,43.80
2018-02-27T07:55:40.233Z,43.20
2018-02-27T07:58:07.849Z,43.00
2018-02-27T08:00:35.430Z,43.10
2018-02-27T08:03:03.019Z,43.10
2018-02-27T08:05:30.589Z,42.70
2018-02-27T08:07:58.442Z,42.00
2018-02-27T08:10:26.014Z,42.50
2018-02-27T08:12:53.621Z,42.80
2018-02-27T08:15:21.956Z,42.30
2018-02-27T08:17:49.556Z,42.30
2018-02-27T08:20:17.351Z,42.20
2018-02-27T08:22:44.933Z,42.00
2018-02-27T08:25:12.498Z,41.30
2018-02-27T08:27:40.147Z,41.30
2018-02-27T08:30:07.726Z,41.50
2018-02-27T08:32:35.288Z,41.50
2018-02-27T08:35:02.881Z,41.20
2018-02-27T08:37:30.451Z,41.40
2018-02-27T08:39:58.049Z,41.60
2018-02-27T08:42:25.623Z,41.10
2018-02-27T08:44:53.215Z,41.10
2018-02-27T08:47:21.558Z,41.00
2018-02-27T08:49:49.152Z,40.90
2018-02-27T08:52:16.731Z,40.90
2018-02-27T08:54:44.337Z,40.80
2018-02-27T08:57:11.902Z,40.80
2018-02-27T08:59:39.496Z,41.10
2018-02-27T09:02:07.888Z,41.00
2018-02-27T09:04:35.476Z,40.90
2018-02-27T09:07:03.046Z,40.40
2018-02-27T09:09:30.641Z,40.90
2018-02-27T09:11:58.972Z,40.90
2018-02-27T09:14:26.558Z,40.90
2018-02-27T09:16:54.137Z,40.80
2018-02-27T09:19:22.528Z,40.10
2018-02-27T09:21:50.861Z,39.40
2018-02-27T09:24:18.516Z,39.30
2018-02-27T09:26:46.095Z,39.40
2018-02-27T09:29:13.688Z,39.60
2018-02-27T09:31:42.021Z,39.40
2018-02-27T09:34:09.621Z,39.30
2018-02-27T09:36:37.191Z,39.30
2018-02-27T09:39:04.776Z,38.90
2018-02-27T09:41:32.341Z,38.50
2018-02-27T09:43:59.932Z,38.30
2018-02-27T09:46:27.514Z,38.50
2018-02-27T09:48:55.108Z,38.60
2018-02-27T09:51:22.685Z,38.80
2018-02-27T09:53:50.328Z,38.30
2018-02-27T09:56:17.897Z,37.60
2018-02-27T09:58:45.509Z,38.10
2018-02-27T10:01:13.851Z,37.30
2018-02-27T10:03:41.431Z,37.20
2018-02-27T10:06:09.795Z,36.20
2018-02-27T10:08:37.368Z,36.00
2018-02-27T10:11:05.005Z,36.30
2018-02-27T10:13:32.565Z,36.20
2018-02-27T10:16:00.916Z,35.30
2018-02-27T10:18:28.496Z,35.20
2018-02-27T10:20:56.084Z,35.90
2018-02-27T10:23:23.656Z,35.90
2018-02-27T10:25:51.254Z,35.20
2018-02-27T10:28:18.823Z,34.80
2018-02-27T10:30:46.426Z,36.20
2018-02-27T10:33:14.756Z,35.00
2018-02-27T10:35:42.345Z,35.00
2018-02-27T10:38:09.957Z,34.50
2018-02-27T10:40:37.588Z,34.20
2018-02-27T10:43:05.140Z,34.20
2018-02-27T10:45:32.746Z,34.50
2018-02-27T10:48:00.317Z,34.40
2018-02-27T10:50:27.913Z,34.50
2018-02-27T10:52:56.248Z,33.90
2018-02-27T10:55:23.829Z,33.80
2018-02-27T10:57:51.398Z,33.30
2018-02-27T11:00:24.648Z,32.60
2018-02-27T11:02:52.218Z,34.10
2018-02-27T11:05:19.805Z,32.80
2018-02-27T11:07:47.365Z,32.90
2018-02-27T11:10:14.948Z,31.80
2018-02-27T11:12:43.282Z,31.80
2018-02-27T11:15:10.873Z,31.60
2018-02-27T11:17:38.437Z,31.00
2018-02-27T11:20:06.022Z,30.00
2018-02-27T11:22:33.590Z,30.00
2018-02-27T11:25:02.052Z,29.40
2018-02-27T11:27:29.619Z,31.20
2018-02-27T11:29:57.200Z,29.90
2018-02-27T11:32:24.769Z,30.90
2018-02-27T11:34:52.356Z,29.90
2018-02-27T11:37:19.953Z,29.80
2018-02-27T11:39:47.807Z,29.80
2018-02-27T11:42:16.164Z,30.30
2018-02-27T11:44:43.745Z,30.30
2018-02-27T11:47:11.335Z,30.20
2018-02-27T11:49:38.902Z,30.00
2018-02-27T11:52:06.488Z,31.50
2018-02-27T11:54:34.064Z,30.00
2018-02-27T11:57:02.422Z,30.30
2018-02-27T11:59:29.994Z,30.80
2018-02-27T12:01:57.591Z,30.80
2018-02-27T12:04:25.355Z,30.20
2018-02-27T12:06:53.161Z,29.90
2018-02-27T12:09:20.741Z,30.30
2018-02-27T12:11:48.348Z,30.60
2018-02-27T12:14:15.911Z,29.90
2018-02-27T12:16:43.500Z,31.30
2018-02-27T12:19:11.074Z,30.80
2018-02-27T12:21:38.741Z,30.70
2018-02-27T12:24:06.318Z,31.00
2018-02-27T12:26:34.682Z,31.30
2018-02-27T12:29:03.031Z,31.20
2018-02-27T12:31:30.626Z,31.10
2018-02-27T12:33:58.197Z,31.30
2018-02-27T12:36:25.783Z,30.70
2018-02-27T12:38:53.470Z,31.20
2018-02-27T12:41:21.062Z,31.20
2018-02-27T12:43:48.638Z,31.80
2018-02-27T12:46:16.242Z,31.10
2018-02-27T12:48:43.814Z,31.10
2018-02-27T12:51:11.414Z,31.00
2018-02-27T12:53:39.749Z,31.70
2018-02-27T12:56:07.333Z,31.70
2018-02-27T12:58:35.681Z,30.80
2018-02-27T13:01:03.268Z,30.80
2018-02-27T13:03:30.850Z,30.30
2018-02-27T13:05:58.446Z,29.60
2018-02-27T13:08:26.009Z,29.90
2018-02-27T13:10:53.596Z,31.10
2018-02-27T13:13:21.164Z,30.50
2018-02-27T13:15:48.732Z,30.90
2018-02-27T13:18:17.093Z,30.80
2018-02-27T13:20:44.669Z,30.80
2018-02-27T13:23:12.270Z,30.60
2018-02-27T13:25:39.832Z,30.00
2018-02-27T13:28:07.416Z,30.00
2018-02-27T13:30:34.986Z,29.90
2018-02-27T13:33:02.584Z,29.70
2018-02-27T13:35:31.033Z,29.60
2018-02-27T13:37:59.262Z,29.40
2018-02-27T13:40:26.824Z,29.70
2018-02-27T13:42:54.436Z,30.10
2018-02-27T13:45:22.770Z,30.10
2018-02-27T13:47:50.397Z,30.00
2018-02-27T13:50:17.966Z,30.50
2018-02-27T13:52:45.554Z,30.40
2018-02-27T13:55:13.134Z,30.80
2018-02-27T13:57:40.734Z,30.90
2018-02-27T14:00:08.309Z,30.60
2018-02-27T14:02:35.915Z,30.80
2018-02-27T14:05:03.485Z,30.50
2018-02-27T14:07:31.077Z,30.90
2018-02-27T14:09:58.653Z,30.60
2018-02-27T14:12:26.249Z,30.70
2018-02-27T14:14:53.821Z,30.40
2018-02-27T14:17:22.186Z,30.30
2018-02-27T14:19:49.761Z,30.20
2018-02-27T14:22:17.358Z,31.10
2018-02-27T14:24:44.920Z,30.30
2018-02-27T14:27:12.521Z,30.00
2018-02-27T14:29:40.097Z,30.40
2018-02-27T14:32:08.462Z,30.50
2018-02-27T14:34:36.029Z,30.50
2018-02-27T14:37:04.385Z,29.30
2018-02-27T14:39:31.988Z,29.30
2018-02-27T14:41:59.602Z,29.80
2018-02-27T14:44:27.172Z,30.40
2018-02-27T14:46:54.830Z,29.90
2018-02-27T14:49:22.420Z,30.10
2018-02-27T14:53:22.706Z,30.70
2018-02-27T14:55:50.277Z,30.80
2018-02-27T14:58:17.884Z,30.60
2018-02-27T15:00:45.465Z,31.00
2018-02-27T15:03:13.055Z,31.00
2018-02-27T15:05:40.630Z,31.10
2018-02-27T15:08:09.000Z,31.10
2018-02-27T15:10:36.576Z,31.00
2018-02-27T15:13:04.164Z,30.80
2018-02-27T15:15:31.779Z,30.60
2018-02-27T15:17:59.351Z,31.10
2018-02-27T15:20:26.932Z,31.30
2018-02-27T15:22:54.521Z,30.90
2018-02-27T15:25:22.102Z,30.80
2018-02-27T15:27:50.242Z,30.70
2018-02-27T15:30:17.824Z,30.70
2018-02-27T15:32:45.429Z,31.50
2018-02-27T15:35:13.761Z,31.90
2018-02-27T15:37:41.362Z,31.80
2018-02-27T15:40:08.956Z,31.40
2018-02-27T15:42:36.598Z,31.10
2018-02-27T15:45:04.177Z,31.30
2018-02-27T15:47:31.785Z,31.30
2018-02-27T15:49:59.362Z,31.20
2018-02-27T15:52:26.936Z,31.30
2018-02-27T15:54:54.544Z,31.40
2018-02-27T15:57:22.120Z,31.00
2018-02-27T15:59:49.731Z,31.00
2018-02-27T16:02:17.312Z,31.40
2018-02-27T16:04:44.909Z,31.00
2018-02-27T16:07:13.250Z,31.00
2018-02-27T16:09:40.842Z,31.00
2018-02-27T16:12:08.437Z,30.70
2018-02-27T16:14:36.030Z,30.40
2018-02-27T16:17:03.608Z,30.90
2018-02-27T16:19:31.221Z,30.60
2018-02-27T16:21:58.887Z,30.90
2018-02-27T16:24:26.481Z,30.80
2018-02-27T16:26:54.069Z,30.70
2018-02-27T16:29:22.428Z,31.10
2018-02-27T16:31:50.783Z,31.20
2018-02-27T16:34:18.377Z,31.10
2018-02-27T16:36:45.964Z,31.10
2018-02-27T16:39:13.552Z,31.40
2018-02-27T16:41:41.142Z,31.50
2018-02-27T16:44:08.778Z,31.50
2018-02-27T16:46:36.393Z,31.50
2018-02-27T16:49:03.980Z,31.70
2018-02-27T16:51:31.544Z,31.50
2018-02-27T16:53:59.136Z,31.00
2018-02-27T16:56:26.709Z,31.50
2018-02-27T16:58:55.078Z,31.10
2018-02-27T17:01:23.473Z,31.10
2018-02-27T17:03:51.093Z,31.60
2018-02-27T17:06:18.657Z,31.80
2018-02-27T17:08:46.252Z,31.50
2018-02-27T17:11:13.821Z,31.90
2018-02-27T17:13:42.413Z,32.10
2018-02-27T17:16:09.993Z,32.10
2018-02-27T17:18:37.600Z,32.20
2018-02-27T17:21:05.177Z,32.40
2018-02-27T17:23:33.552Z,32.90
2018-02-27T17:26:01.128Z,32.90
2018-02-27T17:28:28.709Z,34.10
2018-02-27T17:30:56.358Z,33.30
2018-02-27T17:33:24.025Z,32.80
2018-02-27T17:35:51.613Z,33.10
2018-02-27T17:38:19.207Z,32.50
2018-02-27T17:40:47.578Z,32.40
2018-02-27T17:43:15.916Z,32.20
2018-02-27T17:45:43.513Z,32.20
2018-02-27T17:48:11.138Z,32.40
2018-02-27T17:50:38.710Z,32.60
2018-02-27T17:53:06.317Z,33.00
2018-02-27T17:55:33.933Z,33.20
2018-02-27T17:58:01.508Z,33.10
2018-02-27T18:00:29.349Z,32.90
2018-02-27T18:02:57.462Z,32.60
2018-02-27T18:05:25.073Z,33.10
2018-02-27T18:07:52.707Z,33.50
2018-02-27T18:10:20.347Z,33.50
2018-02-27T18:12:50.053Z,33.50
2018-02-27T18:15:18.414Z,33.60
2018-02-27T18:17:46.811Z,33.50
2018-02-27T18:20:14.377Z,33.50
2018-02-27T18:22:43.782Z,32.80
2018-02-27T18:25:13.247Z,33.40
2018-02-27T18:27:44.961Z,33.30
2018-02-27T18:30:12.844Z,33.50
2018-02-27T18:32:40.425Z,34.10
2018-02-27T18:35:09.890Z,34.40
2018-02-27T18:37:37.465Z,34.80
2018-02-27T18:40:05.073Z,35.10
2018-02-27T18:42:34.462Z,35.10
2018-02-27T18:45:02.062Z,34.70
2018-02-27T18:47:29.651Z,35.30
2018-02-27T18:49:57.262Z,34.70
2018-02-27T18:52:24.835Z,34.90
2018-02-27T18:54:52.432Z,35.20
2018-02-27T18:57:20.007Z,35.00
2018-02-27T18:59:47.608Z,35.80
2018-02-27T19:02:15.360Z,36.40
2018-02-27T19:04:42.929Z,36.20
2018-02-27T19:07:10.521Z,36.40
2018-02-27T19:09:38.093Z,36.20
2018-02-27T19:12:05.690Z,36.80
2018-02-27T19:14:33.287Z,36.70
2018-02-27T19:17:00.877Z,36.90
2018-02-27T19:19:29.014Z,36.40
2018-02-27T19:21:56.610Z,36.30
2018-02-27T19:24:24.186Z,36.20
2018-02-27T19:26:51.792Z,36.30
2018-02-27T19:29:19.410Z,36.00
2018-02-27T19:31:47.773Z,35.90
2018-02-27T19:34:15.490Z,35.90
2018-02-27T19:36:43.161Z,35.90
2018-02-27T19:39:11.512Z,35.70
2018-02-27T19:41:39.114Z,35.80
2018-02-27T19:44:06.821Z,36.10
2018-02-27T19:46:34.877Z,36.00
2018-02-27T19:49:03.363Z,36.00
2018-02-27T19:51:31.028Z,35.70
2018-02-27T19:53:59.367Z,35.50
2018-02-27T19:56:26.968Z,35.50
2018-02-27T19:58:54.545Z,35.60
2018-02-27T20:01:22.379Z,36.20
2018-02-27T20:03:50.010Z,36.40
2018-02-27T20:06:17.625Z,35.90
2018-02-27T20:08:45.212Z,35.60
2018-02-27T20:11:12.824Z,35.90
2018-02-27T20:13:41.174Z,36.10
2018-02-27T20:16:13.027Z,36.00
2018-02-27T20:18:40.626Z,35.90
2018-02-27T20:21:08.222Z,35.70
2018-02-27T20:23:41.481Z,35.60
2018-02-27T20:26:09.841Z,36.70
2018-02-27T20:28:56.394Z,36.50
2018-02-27T20:31:24.809Z,36.50
2018-02-27T20:33:52.380Z,36.40
2018-02-27T20:36:19.993Z,36.60
2018-02-27T20:38:53.267Z,36.20
2018-02-27T20:41:20.881Z,36.00
2018-02-27T20:43:48.456Z,36.20
2018-02-27T20:46:16.063Z,36.10
2018-02-27T20:48:43.632Z,36.30
2018-02-27T20:51:11.253Z,36.20
2018-02-27T20:53:38.817Z,36.30
2018-02-27T20:56:06.386Z,36.80
2018-02-27T20:58:33.981Z,36.70
2018-02-27T21:01:01.597Z,37.30
2018-02-27T21:03:29.185Z,37.10
2018-02-27T21:05:56.766Z,37.20
2018-02-27T21:08:24.367Z,37.40
2018-02-27T21:10:51.960Z,37.40
2018-02-27T21:13:19.557Z,37.90
2018-02-27T21:15:47.131Z,37.60
2018-02-27T21:18:14.779Z,37.80
2018-02-27T21:20:42.326Z,37.90
2018-02-27T21:23:09.933Z,37.30
2018-02-27T21:25:37.507Z,38.50
2018-02-27T21:28:05.101Z,38.30
2018-02-27T21:30:33.463Z,39.00
2018-02-27T21:33:01.057Z,38.80
2018-02-27T21:35:28.629Z,39.00
2018-02-27T21:37:56.225Z,39.30
2018-02-27T21:40:23.807Z,39.60
2018-02-27T21:42:51.401Z,38.90
2018-02-27T21:45:19.736Z,39.20
2018-02-27T21:47:47.325Z,39.10
2018-02-27T21:50:14.919Z,38.60
2018-02-27T21:52:42.517Z,39.00
2018-02-27T21:55:10.084Z,39.80
2018-02-27T21:57:37.688Z,38.90
2018-02-27T22:00:05.263Z,39.20
2018-02-27T22:02:33.879Z,40.00
2018-02-27T22:05:01.445Z,40.40
2018-02-27T22:07:29.809Z,41.20
2018-02-27T22:09:57.381Z,41.20
2018-02-27T22:12:24.980Z,41.20
2018-02-27T22:14:52.554Z,41.20
2018-02-27T22:17:20.177Z,40.20
2018-02-27T22:19:47.772Z,41.30
2018-02-27T22:22:15.353Z,41.20
2018-02-27T22:24:42.950Z,40.60
2018-02-27T22:27:10.521Z,40.00
2018-02-27T22:29:38.876Z,42.10
2018-02-27T22:32:06.454Z,42.10
2018-02-27T22:34:34.049Z,40.70
2018-02-27T22:37:01.627Z,41.00
2018-02-27T22:39:29.230Z,42.00
2018-02-27T22:41:56.805Z,41.30
2018-02-27T22:44:25.176Z,41.10
2018-02-27T22:46:52.775Z,41.00
2018-02-27T22:49:20.374Z,41.30
2018-02-27T22:51:47.959Z,41.00
2018-02-27T22:54:15.560Z,41.30
2018-02-27T22:56:43.143Z,41.90
2018-02-27T22:59:10.742Z,42.20
2018-02-27T23:01:38.314Z,41.40
2018-02-27T23:04:05.914Z,41.60
2018-02-27T23:06:33.485Z,42.20
2018-02-27T23:09:01.084Z,42.90
2018-02-27T23:11:29.423Z,43.00
2018-02-27T23:13:57.025Z,43.00
2018-02-27T23:16:24.589Z,42.90
2018-02-27T23:18:52.190Z,43.50
2018-02-27T23:21:19.765Z,43.70
2018-02-27T23:23:50.138Z,42.50
2018-02-27T23:26:18.814Z,43.30
2018-02-27T23:28:46.485Z,43.70
2018-02-27T23:31:14.141Z,42.80
2018-02-27T23:33:42.796Z,42.40
2018-02-27T23:36:10.388Z,41.90
2018-02-27T23:38:37.969Z,42.40
2018-02-27T23:41:05.566Z,42.50
2018-02-27T23:43:33.139Z,43.20
2018-02-27T23:46:01.519Z,42.50
2018-02-27T23:48:29.089Z,42.40
2018-02-27T23:50:56.688Z,43.60
2018-02-27T23:53:24.263Z,43.80
2018-02-27T23:55:53.367Z,42.70
2018-02-27T23:58:20.958Z,42.20
